sensor_id;sensor_type;location;lat;lon;timestamp;temperature;humidity
2873;DHT22;1444;49.166;7.312;2022-11-15T00:02:03;13.50;99.90
2873;DHT22;1444;49.166;7.312;2022-11-15T00:04:30;13.50;99.90
2873;DHT22;1444;49.166;7.312;2022-11-15T00:06:56;13.50;99.90
2873;DHT22;1444;49.166;7.312;2022-11-15T00:09:23;13.50;99.90
2873;DHT22;1444;49.166;7.312;2022-11-15T00:11:51;13.50;99.90
2873;DHT22;1444;49.166;7.312;2022-11-15T00:14:18;13.50;99.90
2873;DHT22;1444;49.166;7.312;2022-11-15T00:16:45;13.50;99.90
2873;DHT22;1444;49.166;7.312;2022-11-15T00:19:13;17.00;99.90
2873;DHT22;1444;49.166;7.312;2022-11-15T00:21:40;15.90;99.90
2873;DHT22;1444;49.166;7.312;2022-11-15T00:24:07;13.60;99.90
2873;DHT22;1444;49.166;7.312;2022-11-15T00:29:01;13.50;99.90
2873;DHT22;1444;49.166;7.312;2022-11-15T00:31:27;13.60;99.90
2873;DHT22;1444;49.166;7.312;2022-11-15T00:33:54;12.60;99.90
2873;DHT22;1444;49.166;7.312;2022-11-15T00:36:22;13.60;99.90
2873;DHT22;1444;49.166;7.312;2022-11-15T00:38:49;13.60;99.90
2873;DHT22;1444;49.166;7.312;2022-11-15T00:41:16;13.60;99.90
2873;DHT22;1444;49.166;7.312;2022-11-15T00:43:42;13.60;99.90
2873;DHT22;1444;49.166;7.312;2022-11-15T00:51:04;13.70;99.90
2873;DHT22;1444;49.166;7.312;2022-11-15T00:53:32;13.60;99.90
2873;DHT22;1444;49.166;7.312;2022-11-15T00:55:59;13.60;99.90
2873;DHT22;1444;49.166;7.312;2022-11-15T01:00:52;13.70;99.90
2873;DHT22;1444;49.166;7.312;2022-11-15T01:05:47;13.60;99.90
2873;DHT22;1444;49.166;7.312;2022-11-15T01:10:44;13.60;99.90
2873;DHT22;1444;49.166;7.312;2022-11-15T01:13:11;13.60;99.90
2873;DHT22;1444;49.166;7.312;2022-11-15T01:15:39;13.60;99.90
2873;DHT22;1444;49.166;7.312;2022-11-15T01:18:06;13.60;99.90
2873;DHT22;1444;49.166;7.312;2022-11-15T01:20:33;13.70;99.90
2873;DHT22;1444;49.166;7.312;2022-11-15T01:30:23;13.60;99.90
2873;DHT22;1444;49.166;7.312;2022-11-15T01:32:49;13.60;99.90
2873;DHT22;1444;49.166;7.312;2022-11-15T01:35:16;13.60;99.90
2873;DHT22;1444;49.166;7.312;2022-11-15T01:37:43;13.60;99.90
2873;DHT22;1444;49.166;7.312;2022-11-15T01:40:10;13.50;99.90
2873;DHT22;1444;49.166;7.312;2022-11-15T01:42:37;13.60;99.90
2873;DHT22;1444;49.166;7.312;2022-11-15T01:47:36;13.50;99.90
2873;DHT22;1444;49.166;7.312;2022-11-15T01:55:05;13.50;99.90
2873;DHT22;1444;49.166;7.312;2022-11-15T02:00:02;13.40;99.90
2873;DHT22;1444;49.166;7.312;2022-11-15T02:04:58;13.60;99.90
2873;DHT22;1444;49.166;7.312;2022-11-15T02:07:25;13.60;99.90
2873;DHT22;1444;49.166;7.312;2022-11-15T02:14:52;13.70;99.90
2873;DHT22;1444;49.166;7.312;2022-11-15T02:17:31;13.70;99.90
2873;DHT22;1444;49.166;7.312;2022-11-15T02:20:21;13.80;99.90
2873;DHT22;1444;49.166;7.312;2022-11-15T02:23:20;13.70;99.90
2873;DHT22;1444;49.166;7.312;2022-11-15T02:31:07;13.70;99.90
2873;DHT22;1444;49.166;7.312;2022-11-15T02:33:42;13.70;99.90
2873;DHT22;1444;49.166;7.312;2022-11-15T02:36:14;13.80;99.90
2873;DHT22;1444;49.166;7.312;2022-11-15T02:49:11;13.60;99.90
2873;DHT22;1444;49.166;7.312;2022-11-15T02:51:38;13.50;99.90
2873;DHT22;1444;49.166;7.312;2022-11-15T02:54:06;13.40;99.90
2873;DHT22;1444;49.166;7.312;2022-11-15T02:59:13;13.50;99.90
2873;DHT22;1444;49.166;7.312;2022-11-15T03:01:56;12.40;99.90
2873;DHT22;1444;49.166;7.312;2022-11-15T03:04:36;13.40;99.90
2873;DHT22;1444;49.166;7.312;2022-11-15T03:07:11;12.80;99.90
2873;DHT22;1444;49.166;7.312;2022-11-15T03:09:45;13.50;99.90
2873;DHT22;1444;49.166;7.312;2022-11-15T03:12:17;13.50;99.90
2873;DHT22;1444;49.166;7.312;2022-11-15T03:14:53;13.50;99.90
2873;DHT22;1444;49.166;7.312;2022-11-15T03:24:53;13.40;99.90
2873;DHT22;1444;49.166;7.312;2022-11-15T03:27:24;13.40;99.90
2873;DHT22;1444;49.166;7.312;2022-11-15T03:32:25;13.40;99.90
2873;DHT22;1444;49.166;7.312;2022-11-15T03:34:57;13.30;99.90
2873;DHT22;1444;49.166;7.312;2022-11-15T03:39:54;13.40;99.90
2873;DHT22;1444;49.166;7.312;2022-11-15T03:42:25;13.30;99.90
2873;DHT22;1444;49.166;7.312;2022-11-15T03:47:32;13.30;99.90
2873;DHT22;1444;49.166;7.312;2022-11-15T03:50:04;13.20;99.90
2873;DHT22;1444;49.166;7.312;2022-11-15T03:52:34;13.10;99.90
2873;DHT22;1444;49.166;7.312;2022-11-15T03:57:29;13.20;99.90
2873;DHT22;1444;49.166;7.312;2022-11-15T03:59:55;13.10;99.90
2873;DHT22;1444;49.166;7.312;2022-11-15T04:02:22;13.00;99.90
2873;DHT22;1444;49.166;7.312;2022-11-15T04:04:50;13.00;99.90
2873;DHT22;1444;49.166;7.312;2022-11-15T04:07:17;12.90;99.90
2873;DHT22;1444;49.166;7.312;2022-11-15T04:12:31;13.00;99.90
2873;DHT22;1444;49.166;7.312;2022-11-15T04:17:34;12.90;99.90
2873;DHT22;1444;49.166;7.312;2022-11-15T04:20:03;12.90;99.90
2873;DHT22;1444;49.166;7.312;2022-11-15T04:22:47;12.80;99.90
2873;DHT22;1444;49.166;7.312;2022-11-15T04:25:31;12.70;99.90
2873;DHT22;1444;49.166;7.312;2022-11-15T04:27:58;12.70;99.90
2873;DHT22;1444;49.166;7.312;2022-11-15T04:30:25;12.60;99.90
2873;DHT22;1444;49.166;7.312;2022-11-15T04:35:20;12.60;99.90
2873;DHT22;1444;49.166;7.312;2022-11-15T04:37:47;12.60;99.90
2873;DHT22;1444;49.166;7.312;2022-11-15T04:40:13;12.60;99.90
2873;DHT22;1444;49.166;7.312;2022-11-15T04:42:40;12.60;99.90
2873;DHT22;1444;49.166;7.312;2022-11-15T04:45:08;12.60;99.90
2873;DHT22;1444;49.166;7.312;2022-11-15T04:47:35;12.50;99.90
2873;DHT22;1444;49.166;7.312;2022-11-15T04:52:31;12.50;99.90
2873;DHT22;1444;49.166;7.312;2022-11-15T04:57:25;12.60;99.90
2873;DHT22;1444;49.166;7.312;2022-11-15T04:59:52;12.50;99.90
2873;DHT22;1444;49.166;7.312;2022-11-15T05:02:19;12.50;99.90
2873;DHT22;1444;49.166;7.312;2022-11-15T05:04:45;12.40;99.90
2873;DHT22;1444;49.166;7.312;2022-11-15T05:07:11;12.40;99.90
2873;DHT22;1444;49.166;7.312;2022-11-15T05:09:40;12.40;99.90
2873;DHT22;1444;49.166;7.312;2022-11-15T05:12:07;12.30;99.90
2873;DHT22;1444;49.166;7.312;2022-11-15T05:17:01;12.40;99.90
2873;DHT22;1444;49.166;7.312;2022-11-15T05:21:55;12.50;99.90
2873;DHT22;1444;49.166;7.312;2022-11-15T05:26:50;12.60;99.90
2873;DHT22;1444;49.166;7.312;2022-11-15T05:29:17;12.70;99.90
2873;DHT22;1444;49.166;7.312;2022-11-15T05:39:08;12.70;99.90
2873;DHT22;1444;49.166;7.312;2022-11-15T05:41:37;12.70;99.90
2873;DHT22;1444;49.166;7.312;2022-11-15T05:46:36;12.80;99.90
2873;DHT22;1444;49.166;7.312;2022-11-15T05:49:05;12.80;99.90
2873;DHT22;1444;49.166;7.312;2022-11-15T05:51:33;12.80;99.90
2873;DHT22;1444;49.166;7.312;2022-11-15T05:54:01;12.70;99.90
2873;DHT22;1444;49.166;7.312;2022-11-15T05:56:28;11.20;99.90
2873;DHT22;1444;49.166;7.312;2022-11-15T05:58:56;12.60;99.90
2873;DHT22;1444;49.166;7.312;2022-11-15T06:01:26;12.70;99.90
2873;DHT22;1444;49.166;7.312;2022-11-15T06:03:54;12.80;99.90
2873;DHT22;1444;49.166;7.312;2022-11-15T06:06:20;12.90;99.90
2873;DHT22;1444;49.166;7.312;2022-11-15T06:08:47;12.90;99.90
2873;DHT22;1444;49.166;7.312;2022-11-15T06:11:14;12.90;99.90
2873;DHT22;1444;49.166;7.312;2022-11-15T06:13:41;12.70;99.90
2873;DHT22;1444;49.166;7.312;2022-11-15T06:16:08;12.70;99.90
2873;DHT22;1444;49.166;7.312;2022-11-15T06:18:36;12.70;99.90
2873;DHT22;1444;49.166;7.312;2022-11-15T06:23:32;12.60;99.90
2873;DHT22;1444;49.166;7.312;2022-11-15T06:26:00;12.70;99.90
2873;DHT22;1444;49.166;7.312;2022-11-15T06:28:28;12.80;99.90
2873;DHT22;1444;49.166;7.312;2022-11-15T06:30:55;12.80;99.90
2873;DHT22;1444;49.166;7.312;2022-11-15T06:33:22;12.70;99.90
2873;DHT22;1444;49.166;7.312;2022-11-15T06:35:50;12.60;99.90
2873;DHT22;1444;49.166;7.312;2022-11-15T06:45:39;12.60;99.90
2873;DHT22;1444;49.166;7.312;2022-11-15T06:48:06;12.60;99.90
2873;DHT22;1444;49.166;7.312;2022-11-15T06:50:33;12.60;99.90
2873;DHT22;1444;49.166;7.312;2022-11-15T07:02:53;12.90;99.90
2873;DHT22;1444;49.166;7.312;2022-11-15T07:05:19;13.00;99.90
2873;DHT22;1444;49.166;7.312;2022-11-15T07:07:51;13.10;99.90
2873;DHT22;1444;49.166;7.312;2022-11-15T07:17:42;13.30;99.90
2873;DHT22;1444;49.166;7.312;2022-11-15T07:20:09;13.40;99.90
2873;DHT22;1444;49.166;7.312;2022-11-15T07:22:36;13.30;99.90
2873;DHT22;1444;49.166;7.312;2022-11-15T07:25:03;13.40;99.90
2873;DHT22;1444;49.166;7.312;2022-11-15T07:27:32;13.40;99.90
2873;DHT22;1444;49.166;7.312;2022-11-15T07:32:25;13.40;99.90
2873;DHT22;1444;49.166;7.312;2022-11-15T07:34:53;13.30;99.90
2873;DHT22;1444;49.166;7.312;2022-11-15T07:39:46;13.40;99.90
2873;DHT22;1444;49.166;7.312;2022-11-15T07:42:13;13.40;99.90
2873;DHT22;1444;49.166;7.312;2022-11-15T07:47:28;13.40;99.90
2873;DHT22;1444;49.166;7.312;2022-11-15T07:49:55;13.50;99.90
2873;DHT22;1444;49.166;7.312;2022-11-15T07:52:21;13.50;99.90
2873;DHT22;1444;49.166;7.312;2022-11-15T07:59:42;13.30;99.90
2873;DHT22;1444;49.166;7.312;2022-11-15T08:02:10;13.30;99.90
2873;DHT22;1444;49.166;7.312;2022-11-15T08:04:37;13.20;99.90
2873;DHT22;1444;49.166;7.312;2022-11-15T08:07:04;13.20;99.90
2873;DHT22;1444;49.166;7.312;2022-11-15T08:09:31;13.30;99.90
2873;DHT22;1444;49.166;7.312;2022-11-15T08:19:20;13.50;99.90
2873;DHT22;1444;49.166;7.312;2022-11-15T08:21:47;13.50;99.90
2873;DHT22;1444;49.166;7.312;2022-11-15T08:24:14;13.50;99.90
2873;DHT22;1444;49.166;7.312;2022-11-15T08:26:41;13.60;99.90
2873;DHT22;1444;49.166;7.312;2022-11-15T08:31:35;13.70;99.90
2873;DHT22;1444;49.166;7.312;2022-11-15T08:34:02;13.70;99.90
2873;DHT22;1444;49.166;7.312;2022-11-15T08:36:31;13.80;99.90
2873;DHT22;1444;49.166;7.312;2022-11-15T08:38:58;13.80;99.90
2873;DHT22;1444;49.166;7.312;2022-11-15T08:41:26;13.90;99.90
2873;DHT22;1444;49.166;7.312;2022-11-15T08:48:48;14.00;99.90
2873;DHT22;1444;49.166;7.312;2022-11-15T08:51:15;14.10;99.90
2873;DHT22;1444;49.166;7.312;2022-11-15T08:58:38;14.10;99.90
2873;DHT22;1444;49.166;7.312;2022-11-15T09:03:32;14.10;99.90
2873;DHT22;1444;49.166;7.312;2022-11-15T09:06:00;14.20;99.90
2873;DHT22;1444;49.166;7.312;2022-11-15T09:10:58;14.20;99.90
2873;DHT22;1444;49.166;7.312;2022-11-15T09:15:57;12.00;99.90
2873;DHT22;1444;49.166;7.312;2022-11-15T09:18:24;14.20;99.90
2873;DHT22;1444;49.166;7.312;2022-11-15T09:20:51;15.30;99.90
2873;DHT22;1444;49.166;7.312;2022-11-15T09:23:22;14.30;99.90
2873;DHT22;1444;49.166;7.312;2022-11-15T09:25:49;14.40;99.90
2873;DHT22;1444;49.166;7.312;2022-11-15T09:28:17;14.50;99.90
2873;DHT22;1444;49.166;7.312;2022-11-15T09:33:12;14.60;99.90
2873;DHT22;1444;49.166;7.312;2022-11-15T09:35:39;14.60;99.90
2873;DHT22;1444;49.166;7.312;2022-11-15T09:38:06;14.60;99.90
2873;DHT22;1444;49.166;7.312;2022-11-15T09:45:42;14.60;99.90
2873;DHT22;1444;49.166;7.312;2022-11-15T09:53:26;14.80;99.90
2873;DHT22;1444;49.166;7.312;2022-11-15T09:58:29;14.80;99.90
2873;DHT22;1444;49.166;7.312;2022-11-15T10:01:00;14.80;99.90
2873;DHT22;1444;49.166;7.312;2022-11-15T10:03:34;14.80;99.90
2873;DHT22;1444;49.166;7.312;2022-11-15T10:06:03;14.80;99.90
2873;DHT22;1444;49.166;7.312;2022-11-15T10:11:04;14.80;99.90
2873;DHT22;1444;49.166;7.312;2022-11-15T10:13:35;14.90;99.90
2873;DHT22;1444;49.166;7.312;2022-11-15T10:18:51;15.00;99.90
2873;DHT22;1444;49.166;7.312;2022-11-15T10:26:16;15.10;99.90
2873;DHT22;1444;49.166;7.312;2022-11-15T10:28:43;15.20;99.90
2873;DHT22;1444;49.166;7.312;2022-11-15T10:31:23;15.30;99.90
2873;DHT22;1444;49.166;7.312;2022-11-15T10:36:21;15.50;99.90
2873;DHT22;1444;49.166;7.312;2022-11-15T10:38:57;15.50;99.90
2873;DHT22;1444;49.166;7.312;2022-11-15T10:41:36;15.60;99.90
2873;DHT22;1444;49.166;7.312;2022-11-15T10:44:19;15.60;99.90
2873;DHT22;1444;49.166;7.312;2022-11-15T10:47:03;15.70;99.90
2873;DHT22;1444;49.166;7.312;2022-11-15T10:49:31;15.80;99.90
2873;DHT22;1444;49.166;7.312;2022-11-15T10:52:01;15.90;99.90
2873;DHT22;1444;49.166;7.312;2022-11-15T10:54:30;15.90;99.90
2873;DHT22;1444;49.166;7.312;2022-11-15T10:57:00;16.00;99.90
2873;DHT22;1444;49.166;7.312;2022-11-15T11:02:00;16.10;99.90
2873;DHT22;1444;49.166;7.312;2022-11-15T11:04:27;16.10;99.90
2873;DHT22;1444;49.166;7.312;2022-11-15T11:06:56;16.10;99.90
2873;DHT22;1444;49.166;7.312;2022-11-15T11:09:32;16.10;99.90
2873;DHT22;1444;49.166;7.312;2022-11-15T11:12:00;15.90;99.90
2873;DHT22;1444;49.166;7.312;2022-11-15T11:17:04;15.80;99.90
2873;DHT22;1444;49.166;7.312;2022-11-15T11:19:50;15.70;99.90
2873;DHT22;1444;49.166;7.312;2022-11-15T11:22:26;15.70;99.90
2873;DHT22;1444;49.166;7.312;2022-11-15T11:25:04;15.60;99.90
2873;DHT22;1444;49.166;7.312;2022-11-15T11:27:43;15.50;99.90
2873;DHT22;1444;49.166;7.312;2022-11-15T11:30:18;15.70;99.90
2873;DHT22;1444;49.166;7.312;2022-11-15T11:33:00;15.80;99.90
2873;DHT22;1444;49.166;7.312;2022-11-15T11:35:30;16.00;99.90
2873;DHT22;1444;49.166;7.312;2022-11-15T11:40:35;16.10;99.90
2873;DHT22;1444;49.166;7.312;2022-11-15T11:43:10;16.00;99.90
2873;DHT22;1444;49.166;7.312;2022-11-15T11:50:58;15.80;99.90
2873;DHT22;1444;49.166;7.312;2022-11-15T11:53:30;15.80;99.90
2873;DHT22;1444;49.166;7.312;2022-11-15T11:58:33;15.60;99.90
2873;DHT22;1444;49.166;7.312;2022-11-15T12:01:08;15.70;99.90
2873;DHT22;1444;49.166;7.312;2022-11-15T12:03:41;15.70;99.90
2873;DHT22;1444;49.166;7.312;2022-11-15T12:11:16;15.80;99.90
2873;DHT22;1444;49.166;7.312;2022-11-15T12:13:44;15.80;99.90
2873;DHT22;1444;49.166;7.312;2022-11-15T12:16:19;15.70;99.90
2873;DHT22;1444;49.166;7.312;2022-11-15T12:18:51;15.50;99.90
2873;DHT22;1444;49.166;7.312;2022-11-15T12:21:24;15.40;99.90
2873;DHT22;1444;49.166;7.312;2022-11-15T12:23:59;15.50;99.90
2873;DHT22;1444;49.166;7.312;2022-11-15T12:26:34;15.40;99.90
2873;DHT22;1444;49.166;7.312;2022-11-15T12:29:05;15.20;99.90
2873;DHT22;1444;49.166;7.312;2022-11-15T12:34:15;15.10;99.90
2873;DHT22;1444;49.166;7.312;2022-11-15T12:36:56;15.10;99.90
2873;DHT22;1444;49.166;7.312;2022-11-15T12:42:40;15.10;99.90
2873;DHT22;1444;49.166;7.312;2022-11-15T12:45:25;15.10;99.90
2873;DHT22;1444;49.166;7.312;2022-11-15T12:47:52;15.10;99.90
2873;DHT22;1444;49.166;7.312;2022-11-15T12:50:54;15.10;99.90
2873;DHT22;1444;49.166;7.312;2022-11-15T12:56:17;15.00;99.90
2873;DHT22;1444;49.166;7.312;2022-11-15T12:58:47;15.00;99.90
2873;DHT22;1444;49.166;7.312;2022-11-15T13:04:23;14.90;99.90
2873;DHT22;1444;49.166;7.312;2022-11-15T13:06:54;14.80;99.90
2873;DHT22;1444;49.166;7.312;2022-11-15T13:09:53;14.90;99.90
2873;DHT22;1444;49.166;7.312;2022-11-15T13:12:52;14.90;99.90
2873;DHT22;1444;49.166;7.312;2022-11-15T13:15:44;15.00;99.90
2873;DHT22;1444;49.166;7.312;2022-11-15T13:18:28;14.90;99.90
2873;DHT22;1444;49.166;7.312;2022-11-15T13:20:56;15.00;99.90
2873;DHT22;1444;49.166;7.312;2022-11-15T13:23:24;14.90;99.90
2873;DHT22;1444;49.166;7.312;2022-11-15T13:28:31;14.90;99.90
2873;DHT22;1444;49.166;7.312;2022-11-15T13:31:02;14.90;99.90
2873;DHT22;1444;49.166;7.312;2022-11-15T13:33:31;14.90;99.90
2873;DHT22;1444;49.166;7.312;2022-11-15T13:36:00;14.90;99.90
2873;DHT22;1444;49.166;7.312;2022-11-15T13:38:30;14.70;99.90
2873;DHT22;1444;49.166;7.312;2022-11-15T13:40:59;14.80;99.90
2873;DHT22;1444;49.166;7.312;2022-11-15T13:43:31;14.80;99.90
2873;DHT22;1444;49.166;7.312;2022-11-15T13:46:11;14.90;99.90
2873;DHT22;1444;49.166;7.312;2022-11-15T13:48:39;14.90;99.90
2873;DHT22;1444;49.166;7.312;2022-11-15T13:51:09;14.90;99.90
2873;DHT22;1444;49.166;7.312;2022-11-15T13:53:41;15.00;99.90
2873;DHT22;1444;49.166;7.312;2022-11-15T13:56:12;15.00;99.90
2873;DHT22;1444;49.166;7.312;2022-11-15T13:58:39;15.10;99.90
2873;DHT22;1444;49.166;7.312;2022-11-15T14:01:06;15.10;99.90
2873;DHT22;1444;49.166;7.312;2022-11-15T14:03:46;15.20;99.90
2873;DHT22;1444;49.166;7.312;2022-11-15T14:06:16;15.00;99.90
2873;DHT22;1444;49.166;7.312;2022-11-15T14:09:04;15.10;99.90
2873;DHT22;1444;49.166;7.312;2022-11-15T14:11:31;15.00;99.90
2873;DHT22;1444;49.166;7.312;2022-11-15T14:14:15;15.10;99.90
2873;DHT22;1444;49.166;7.312;2022-11-15T14:22:17;15.10;99.90
2873;DHT22;1444;49.166;7.312;2022-11-15T14:25:12;15.00;99.90
2873;DHT22;1444;49.166;7.312;2022-11-15T14:30:13;15.00;99.90
2873;DHT22;1444;49.166;7.312;2022-11-15T14:32:44;15.00;99.90
2873;DHT22;1444;49.166;7.312;2022-11-15T14:35:14;14.90;99.90
2873;DHT22;1444;49.166;7.312;2022-11-15T14:37:41;14.80;99.90
2873;DHT22;1444;49.166;7.312;2022-11-15T14:40:14;14.80;99.90
2873;DHT22;1444;49.166;7.312;2022-11-15T14:42:41;14.80;99.90
2873;DHT22;1444;49.166;7.312;2022-11-15T14:45:11;14.80;99.90
2873;DHT22;1444;49.166;7.312;2022-11-15T14:47:39;14.70;99.90
2873;DHT22;1444;49.166;7.312;2022-11-15T14:50:06;14.60;99.90
2873;DHT22;1444;49.166;7.312;2022-11-15T14:52:33;14.70;99.90
2873;DHT22;1444;49.166;7.312;2022-11-15T14:55:02;14.70;99.90
2873;DHT22;1444;49.166;7.312;2022-11-15T14:57:30;14.70;99.90
2873;DHT22;1444;49.166;7.312;2022-11-15T15:02:26;14.70;99.90
2873;DHT22;1444;49.166;7.312;2022-11-15T15:04:53;14.70;99.90
2873;DHT22;1444;49.166;7.312;2022-11-15T15:07:20;17.20;99.90
2873;DHT22;1444;49.166;7.312;2022-11-15T15:14:48;14.40;99.90
2873;DHT22;1444;49.166;7.312;2022-11-15T15:17:15;14.30;99.90
2873;DHT22;1444;49.166;7.312;2022-11-15T15:19:43;14.40;99.90
2873;DHT22;1444;49.166;7.312;2022-11-15T15:22:13;14.30;99.90
2873;DHT22;1444;49.166;7.312;2022-11-15T15:24:41;14.30;99.90
2873;DHT22;1444;49.166;7.312;2022-11-15T15:27:08;14.20;99.90
2873;DHT22;1444;49.166;7.312;2022-11-15T15:29:35;14.20;99.90
2873;DHT22;1444;49.166;7.312;2022-11-15T15:32:04;14.30;99.90
2873;DHT22;1444;49.166;7.312;2022-11-15T15:34:30;14.20;99.90
2873;DHT22;1444;49.166;7.312;2022-11-15T15:37:08;14.20;99.90
2873;DHT22;1444;49.166;7.312;2022-11-15T15:42:02;14.30;99.90
2873;DHT22;1444;49.166;7.312;2022-11-15T15:44:30;14.20;99.90
2873;DHT22;1444;49.166;7.312;2022-11-15T15:49:25;14.20;99.90
2873;DHT22;1444;49.166;7.312;2022-11-15T15:51:52;14.20;99.90
2873;DHT22;1444;49.166;7.312;2022-11-15T15:54:19;14.20;99.90
2873;DHT22;1444;49.166;7.312;2022-11-15T15:56:45;14.20;99.90
2873;DHT22;1444;49.166;7.312;2022-11-15T15:59:12;14.20;99.90
2873;DHT22;1444;49.166;7.312;2022-11-15T16:01:39;14.20;99.90
2873;DHT22;1444;49.166;7.312;2022-11-15T16:06:36;14.20;99.90
2873;DHT22;1444;49.166;7.312;2022-11-15T16:09:03;14.30;99.90
2873;DHT22;1444;49.166;7.312;2022-11-15T16:11:30;14.20;99.90
2873;DHT22;1444;49.166;7.312;2022-11-15T16:13:57;14.30;99.90
2873;DHT22;1444;49.166;7.312;2022-11-15T16:16:24;14.30;99.90
2873;DHT22;1444;49.166;7.312;2022-11-15T16:18:51;14.40;99.90
2873;DHT22;1444;49.166;7.312;2022-11-15T16:21:19;14.50;99.90
2873;DHT22;1444;49.166;7.312;2022-11-15T16:23:47;14.40;99.90
2873;DHT22;1444;49.166;7.312;2022-11-15T16:26:19;14.50;99.90
2873;DHT22;1444;49.166;7.312;2022-11-15T16:28:46;14.60;99.90
2873;DHT22;1444;49.166;7.312;2022-11-15T16:31:13;14.60;99.90
2873;DHT22;1444;49.166;7.312;2022-11-15T16:33:40;14.60;99.90
2873;DHT22;1444;49.166;7.312;2022-11-15T16:38:41;14.40;99.90
2873;DHT22;1444;49.166;7.312;2022-11-15T16:41:09;14.50;99.90
2873;DHT22;1444;49.166;7.312;2022-11-15T16:43:36;14.50;99.90
2873;DHT22;1444;49.166;7.312;2022-11-15T16:46:08;14.60;99.90
2873;DHT22;1444;49.166;7.312;2022-11-15T16:48:38;14.70;99.90
2873;DHT22;1444;49.166;7.312;2022-11-15T16:51:05;14.80;99.90
2873;DHT22;1444;49.166;7.312;2022-11-15T16:53:32;14.80;99.90
2873;DHT22;1444;49.166;7.312;2022-11-15T16:58:28;15.00;99.90
2873;DHT22;1444;49.166;7.312;2022-11-15T17:00:55;15.00;99.90
2873;DHT22;1444;49.166;7.312;2022-11-15T17:03:23;15.10;99.90
2873;DHT22;1444;49.166;7.312;2022-11-15T17:05:50;15.00;99.90
2873;DHT22;1444;49.166;7.312;2022-11-15T17:08:17;15.10;99.90
2873;DHT22;1444;49.166;7.312;2022-11-15T17:10:45;15.10;99.90
2873;DHT22;1444;49.166;7.312;2022-11-15T17:13:12;15.10;99.90
2873;DHT22;1444;49.166;7.312;2022-11-15T17:15:40;15.20;99.90
2873;DHT22;1444;49.166;7.312;2022-11-15T17:20:35;15.10;99.90
2873;DHT22;1444;49.166;7.312;2022-11-15T17:23:02;15.10;99.90
2873;DHT22;1444;49.166;7.312;2022-11-15T17:25:28;15.00;99.90
2873;DHT22;1444;49.166;7.312;2022-11-15T17:27:55;15.00;99.90
2873;DHT22;1444;49.166;7.312;2022-11-15T17:30:22;15.00;99.90
2873;DHT22;1444;49.166;7.312;2022-11-15T17:32:50;15.00;99.90
2873;DHT22;1444;49.166;7.312;2022-11-15T17:35:17;15.10;99.90
2873;DHT22;1444;49.166;7.312;2022-11-15T17:37:43;15.10;99.90
2873;DHT22;1444;49.166;7.312;2022-11-15T17:40:11;15.10;99.90
2873;DHT22;1444;49.166;7.312;2022-11-15T17:42:39;15.00;99.90
2873;DHT22;1444;49.166;7.312;2022-11-15T17:45:07;15.00;99.90
2873;DHT22;1444;49.166;7.312;2022-11-15T17:47:34;14.90;99.90
2873;DHT22;1444;49.166;7.312;2022-11-15T17:50:02;14.90;99.90
2873;DHT22;1444;49.166;7.312;2022-11-15T17:52:29;14.90;99.90
2873;DHT22;1444;49.166;7.312;2022-11-15T17:54:56;14.90;99.90
2873;DHT22;1444;49.166;7.312;2022-11-15T17:57:23;14.90;99.90
2873;DHT22;1444;49.166;7.312;2022-11-15T17:59:49;14.90;99.90
2873;DHT22;1444;49.166;7.312;2022-11-15T18:09:39;14.80;99.90
2873;DHT22;1444;49.166;7.312;2022-11-15T18:12:08;14.80;99.90
2873;DHT22;1444;49.166;7.312;2022-11-15T18:14:35;14.70;99.90
2873;DHT22;1444;49.166;7.312;2022-11-15T18:19:29;14.70;99.90
2873;DHT22;1444;49.166;7.312;2022-11-15T18:21:55;14.80;99.90
2873;DHT22;1444;49.166;7.312;2022-11-15T18:24:26;14.70;99.90
2873;DHT22;1444;49.166;7.312;2022-11-15T18:26:53;14.70;99.90
2873;DHT22;1444;49.166;7.312;2022-11-15T18:31:49;14.60;99.90
2873;DHT22;1444;49.166;7.312;2022-11-15T18:34:20;14.50;99.90
2873;DHT22;1444;49.166;7.312;2022-11-15T18:39:15;14.50;99.90
2873;DHT22;1444;49.166;7.312;2022-11-15T18:41:44;14.50;99.90
2873;DHT22;1444;49.166;7.312;2022-11-15T18:44:12;13.50;99.90
2873;DHT22;1444;49.166;7.312;2022-11-15T18:49:08;14.40;99.90
2873;DHT22;1444;49.166;7.312;2022-11-15T18:51:35;14.40;99.90
2873;DHT22;1444;49.166;7.312;2022-11-15T18:54:07;14.40;99.90
2873;DHT22;1444;49.166;7.312;2022-11-15T19:01:31;14.30;99.90
2873;DHT22;1444;49.166;7.312;2022-11-15T19:04:03;14.30;99.90
2873;DHT22;1444;49.166;7.312;2022-11-15T19:06:30;14.40;99.90
2873;DHT22;1444;49.166;7.312;2022-11-15T19:08:58;14.20;99.90
2873;DHT22;1444;49.166;7.312;2022-11-15T19:11:26;14.20;99.90
2873;DHT22;1444;49.166;7.312;2022-11-15T19:16:23;14.20;99.90
2873;DHT22;1444;49.166;7.312;2022-11-15T19:18:52;14.20;99.90
2873;DHT22;1444;49.166;7.312;2022-11-15T19:21:19;14.20;99.90
2873;DHT22;1444;49.166;7.312;2022-11-15T19:26:14;14.10;99.90
2873;DHT22;1444;49.166;7.312;2022-11-15T19:28:42;14.10;99.90
2873;DHT22;1444;49.166;7.312;2022-11-15T19:31:11;14.00;99.90
2873;DHT22;1444;49.166;7.312;2022-11-15T19:33:40;14.00;99.90
2873;DHT22;1444;49.166;7.312;2022-11-15T19:36:10;14.10;99.90
2873;DHT22;1444;49.166;7.312;2022-11-15T19:38:38;14.10;99.90
2873;DHT22;1444;49.166;7.312;2022-11-15T19:41:06;14.20;99.90
2873;DHT22;1444;49.166;7.312;2022-11-15T19:46:02;14.00;99.90
2873;DHT22;1444;49.166;7.312;2022-11-15T19:48:30;13.90;99.90
2873;DHT22;1444;49.166;7.312;2022-11-15T19:51:00;13.90;99.90
2873;DHT22;1444;49.166;7.312;2022-11-15T19:53:28;13.90;99.90
2873;DHT22;1444;49.166;7.312;2022-11-15T19:58:22;13.90;99.90
2873;DHT22;1444;49.166;7.312;2022-11-15T20:00:50;13.80;99.90
2873;DHT22;1444;49.166;7.312;2022-11-15T20:03:17;13.80;99.90
2873;DHT22;1444;49.166;7.312;2022-11-15T20:08:12;13.80;99.90
2873;DHT22;1444;49.166;7.312;2022-11-15T20:10:39;13.70;99.90
2873;DHT22;1444;49.166;7.312;2022-11-15T20:13:05;13.80;99.90
2873;DHT22;1444;49.166;7.312;2022-11-15T20:15:32;13.60;99.90
2873;DHT22;1444;49.166;7.312;2022-11-15T20:17:59;13.70;99.90
2873;DHT22;1444;49.166;7.312;2022-11-15T20:20:26;13.80;99.90
2873;DHT22;1444;49.166;7.312;2022-11-15T20:22:52;13.80;99.90
2873;DHT22;1444;49.166;7.312;2022-11-15T20:25:20;13.90;99.90
2873;DHT22;1444;49.166;7.312;2022-11-15T20:27:47;13.80;99.90
2873;DHT22;1444;49.166;7.312;2022-11-15T20:30:14;13.70;99.90
2873;DHT22;1444;49.166;7.312;2022-11-15T20:32:41;13.70;99.90
2873;DHT22;1444;49.166;7.312;2022-11-15T20:35:08;13.70;99.90
2873;DHT22;1444;49.166;7.312;2022-11-15T20:37:35;13.80;99.90
2873;DHT22;1444;49.166;7.312;2022-11-15T20:40:01;13.80;99.90
2873;DHT22;1444;49.166;7.312;2022-11-15T20:42:29;13.90;99.90
2873;DHT22;1444;49.166;7.312;2022-11-15T20:44:56;13.90;99.90
2873;DHT22;1444;49.166;7.312;2022-11-15T20:49:50;13.70;99.90
2873;DHT22;1444;49.166;7.312;2022-11-15T20:52:19;13.70;99.90
2873;DHT22;1444;49.166;7.312;2022-11-15T20:57:13;13.60;99.90
2873;DHT22;1444;49.166;7.312;2022-11-15T20:59:41;13.50;99.90
2873;DHT22;1444;49.166;7.312;2022-11-15T21:02:10;13.60;99.90
2873;DHT22;1444;49.166;7.312;2022-11-15T21:04:37;10.90;99.90
2873;DHT22;1444;49.166;7.312;2022-11-15T21:09:31;13.70;99.90
2873;DHT22;1444;49.166;7.312;2022-11-15T21:12:15;13.80;99.90
2873;DHT22;1444;49.166;7.312;2022-11-15T21:14:45;13.80;99.90
2873;DHT22;1444;49.166;7.312;2022-11-15T21:17:13;13.80;99.90
2873;DHT22;1444;49.166;7.312;2022-11-15T21:19:40;13.80;99.90
2873;DHT22;1444;49.166;7.312;2022-11-15T21:22:07;13.70;99.90
2873;DHT22;1444;49.166;7.312;2022-11-15T21:24:35;13.70;99.90